createdAt,value
2023-03-16T00:00:17.610Z,11.09
2023-03-16T00:00:39.731Z,11.11
2023-03-16T00:01:05.882Z,11.07
2023-03-16T00:01:27.901Z,11.01
2023-03-16T00:01:49.909Z,10.87
2023-03-16T00:02:12.890Z,10.81
2023-03-16T00:02:34.501Z,11.01
2023-03-16T00:02:58.522Z,11.08
2023-03-16T00:03:20.644Z,11.09
2023-03-16T00:03:42.845Z,11.14
2023-03-16T00:04:05.029Z,11.12
2023-03-16T00:04:26.844Z,11.09
2023-03-16T00:04:50.004Z,11.07
2023-03-16T00:05:14.064Z,11.10
2023-03-16T00:05:35.740Z,11.10
2023-03-16T00:05:58.366Z,10.97
2023-03-16T00:06:20.764Z,11.13
2023-03-16T00:06:42.634Z,11.15
2023-03-16T00:07:06.419Z,11.12
2023-03-16T00:07:28.256Z,11.11
2023-03-16T00:07:50.903Z,11.10
2023-03-16T00:08:13.093Z,11.07
2023-03-16T00:08:35.522Z,11.05
2023-03-16T00:08:59.099Z,11.05
2023-03-16T00:09:21.738Z,11.04
2023-03-16T00:09:43.601Z,10.99
2023-03-16T00:10:07.144Z,10.92
2023-03-16T00:10:29.249Z,10.94
2023-03-16T00:10:54.339Z,10.94
2023-03-16T00:11:16.450Z,10.90
2023-03-16T00:11:38.437Z,10.88
2023-03-16T00:12:03.120Z,10.70
2023-03-16T00:12:26.236Z,10.82
2023-03-16T00:12:47.776Z,10.89
2023-03-16T00:13:09.892Z,10.64
2023-03-16T00:13:32.525Z,10.81
2023-03-16T00:13:55.623Z,10.83
2023-03-16T00:14:17.241Z,10.81
2023-03-16T00:14:38.814Z,10.83
2023-03-16T00:15:01.924Z,10.81
2023-03-16T00:15:23.586Z,10.86
2023-03-16T00:15:51.403Z,10.68
2023-03-16T00:16:16.841Z,10.76
2023-03-16T00:16:39.258Z,10.77
2023-03-16T00:17:02.014Z,10.72
2023-03-16T00:17:26.576Z,10.68
2023-03-16T00:17:48.719Z,10.70
2023-03-16T00:18:11.728Z,10.71
2023-03-16T00:18:38.820Z,10.68
2023-03-16T00:19:03.648Z,10.58
2023-03-16T00:19:25.260Z,10.62
2023-03-16T00:19:47.732Z,10.64
2023-03-16T00:20:11.799Z,10.66
2023-03-16T00:20:34.450Z,10.65
2023-03-16T00:20:58.228Z,10.64
2023-03-16T00:21:20.129Z,10.69
2023-03-16T00:21:41.777Z,10.68
2023-03-16T00:22:03.419Z,10.66
2023-03-16T00:22:28.024Z,10.64
2023-03-16T00:22:49.787Z,10.70
2023-03-16T00:23:11.913Z,10.67
2023-03-16T00:23:35.936Z,10.66
2023-03-16T00:23:59.177Z,10.71
2023-03-16T00:24:21.056Z,10.52
2023-03-16T00:24:43.881Z,10.59
2023-03-16T00:25:07.002Z,10.41
2023-03-16T00:25:28.627Z,10.48
2023-03-16T00:25:53.713Z,10.51
2023-03-16T00:26:15.358Z,10.62
2023-03-16T00:26:36.992Z,10.65
2023-03-16T00:26:58.587Z,10.67
2023-03-16T00:27:22.644Z,10.67
2023-03-16T00:27:45.533Z,10.71
2023-03-16T00:28:07.234Z,10.71
2023-03-16T00:28:34.623Z,10.68
2023-03-16T00:28:57.831Z,10.70
2023-03-16T00:29:19.512Z,10.71
2023-03-16T00:29:47.424Z,10.65
2023-03-16T00:30:10.312Z,10.64
2023-03-16T00:30:32.930Z,10.63
2023-03-16T00:30:58.931Z,10.51
2023-03-16T00:31:20.766Z,10.47
2023-03-16T00:31:44.077Z,10.45
2023-03-16T00:32:07.521Z,10.52
2023-03-16T00:32:33.484Z,10.49
2023-03-16T00:32:55.245Z,10.39
2023-03-16T00:33:19.713Z,10.35
2023-03-16T00:33:44.822Z,10.35
2023-03-16T00:34:06.434Z,10.27
2023-03-16T00:34:38.749Z,10.19
2023-03-16T00:35:01.960Z,10.19
2023-03-16T00:35:26.392Z,10.08
2023-03-16T00:35:50.226Z,10.13
2023-03-16T00:36:12.671Z,10.16
2023-03-16T00:36:38.127Z,10.15
2023-03-16T00:37:00.749Z,10.13
2023-03-16T00:37:25.013Z,10.18
2023-03-16T00:37:46.868Z,10.10
2023-03-16T00:38:09.587Z,10.19
2023-03-16T00:38:35.305Z,10.21
2023-03-16T00:38:56.867Z,10.22
2023-03-16T00:39:20.497Z,10.23
2023-03-16T00:39:42.274Z,10.24
2023-03-16T00:40:11.416Z,10.25
2023-03-16T00:40:33.838Z,10.22
2023-03-16T00:40:56.130Z,10.26
2023-03-16T00:41:19.098Z,10.27
2023-03-16T00:41:42.903Z,10.19
2023-03-16T00:42:04.597Z,10.14
2023-03-16T00:42:29.353Z,10.16
2023-03-16T00:42:50.976Z,10.17
2023-03-16T00:43:18.509Z,10.15
2023-03-16T00:43:41.312Z,10.12
2023-03-16T00:44:03.726Z,10.13
2023-03-16T00:44:25.315Z,10.12
2023-03-16T00:44:47.599Z,10.17
2023-03-16T00:45:11.758Z,10.19
2023-03-16T00:45:33.411Z,10.20
2023-03-16T00:45:58.805Z,10.25
2023-03-16T00:46:26.382Z,10.18
2023-03-16T00:46:48.035Z,10.29
2023-03-16T00:47:14.299Z,10.29
2023-03-16T00:47:36.262Z,10.34
2023-03-16T00:47:58.890Z,10.36
2023-03-16T00:48:24.423Z,10.30
2023-03-16T00:48:47.239Z,10.31
2023-03-16T00:49:09.376Z,10.33
2023-03-16T00:49:34.824Z,10.40
2023-03-16T00:49:58.108Z,10.35
2023-03-16T00:50:23.296Z,10.34
2023-03-16T00:50:45.108Z,10.28
2023-03-16T00:51:09.100Z,10.22
2023-03-16T00:51:33.854Z,10.26
2023-03-16T00:51:55.461Z,10.26
2023-03-16T00:52:17.293Z,10.29
2023-03-16T00:52:38.903Z,10.34
2023-03-16T00:53:03.490Z,10.38
2023-03-16T00:53:25.162Z,10.42
2023-03-16T00:53:47.403Z,10.44
2023-03-16T00:54:09.073Z,10.51
2023-03-16T00:54:32.780Z,10.49
2023-03-16T00:54:57.491Z,10.54
2023-03-16T00:55:19.312Z,10.58
2023-03-16T00:55:41.532Z,10.57
2023-03-16T00:56:04.427Z,10.56
2023-03-16T00:56:27.423Z,10.59
2023-03-16T00:56:49.112Z,10.50
2023-03-16T00:57:12.306Z,10.55
2023-03-16T00:57:35.502Z,10.66
2023-03-16T00:57:57.212Z,10.69
2023-03-16T00:58:20.068Z,10.73
2023-03-16T00:58:43.283Z,10.74
2023-03-16T00:59:08.784Z,10.77
2023-03-16T00:59:31.221Z,10.80
2023-03-16T00:59:52.978Z,10.84
2023-03-16T01:00:17.071Z,10.83
2023-03-16T01:00:40.382Z,10.85
2023-03-16T01:01:04.782Z,10.83
2023-03-16T01:01:27.361Z,10.84
2023-03-16T01:01:49.431Z,10.86
2023-03-16T01:02:12.400Z,10.89
2023-03-16T01:02:37.205Z,10.90
2023-03-16T01:02:58.859Z,10.87
2023-03-16T01:03:20.755Z,10.88
2023-03-16T01:03:44.841Z,10.91
2023-03-16T01:04:09.358Z,10.94
2023-03-16T01:04:32.471Z,10.93
2023-03-16T01:04:54.898Z,10.94
2023-03-16T01:05:16.728Z,10.90
2023-03-16T01:05:41.825Z,10.90
2023-03-16T01:06:04.529Z,10.86
2023-03-16T01:06:26.352Z,10.89
2023-03-16T01:06:48.985Z,10.86
2023-03-16T01:07:14.627Z,10.75
2023-03-16T01:07:36.320Z,10.80
2023-03-16T01:07:57.936Z,10.75
2023-03-16T01:08:19.620Z,10.75
2023-03-16T01:08:42.831Z,10.72
2023-03-16T01:09:05.589Z,10.63
2023-03-16T01:09:27.367Z,10.64
2023-03-16T01:09:50.362Z,10.63
2023-03-16T01:10:14.011Z,10.57
2023-03-16T01:10:36.623Z,10.54
2023-03-16T01:11:03.535Z,10.58
2023-03-16T01:11:25.165Z,10.57
2023-03-16T01:11:50.765Z,10.46
2023-03-16T01:12:14.698Z,10.35
2023-03-16T01:12:36.505Z,10.31
2023-03-16T01:12:58.351Z,10.33
2023-03-16T01:13:23.491Z,10.39
2023-03-16T01:13:46.889Z,10.39
2023-03-16T01:14:08.747Z,10.35
2023-03-16T01:14:30.626Z,10.45
2023-03-16T01:14:53.659Z,10.48
2023-03-16T01:15:15.376Z,10.50
2023-03-16T01:16:34.366Z,10.40
2023-03-16T01:16:57.183Z,10.43
2023-03-16T01:17:18.872Z,10.44
2023-03-16T01:17:41.381Z,10.50
2023-03-16T01:18:04.875Z,10.51
2023-03-16T01:18:28.563Z,10.56
2023-03-16T01:18:52.565Z,10.56
2023-03-16T01:19:14.320Z,10.61
2023-03-16T01:19:37.444Z,10.60
2023-03-16T01:20:00.705Z,10.60
2023-03-16T01:20:22.882Z,10.62
2023-03-16T01:20:50.567Z,10.69
2023-03-16T01:21:13.884Z,10.68
2023-03-16T01:21:38.180Z,10.73
2023-03-16T01:21:59.921Z,10.71
2023-03-16T01:22:21.596Z,10.71
2023-03-16T01:22:43.273Z,10.73
2023-03-16T01:23:05.464Z,10.74
2023-03-16T01:23:30.111Z,10.62
2023-03-16T01:23:53.683Z,10.74
2023-03-16T01:24:16.705Z,10.74
2023-03-16T01:24:39.964Z,10.77
2023-03-16T01:25:02.570Z,10.76
2023-03-16T01:25:24.271Z,10.81
2023-03-16T01:25:52.733Z,10.77
2023-03-16T01:26:16.343Z,10.74
2023-03-16T01:26:38.997Z,10.80
2023-03-16T01:27:01.396Z,10.73
2023-03-16T01:27:26.238Z,10.74
2023-03-16T01:27:48.170Z,10.72
2023-03-16T01:28:11.210Z,10.71
2023-03-16T01:28:34.188Z,10.65
2023-03-16T01:28:55.857Z,10.67
2023-03-16T01:29:18.086Z,10.65
2023-03-16T01:29:40.376Z,10.64
2023-03-16T01:30:03.164Z,10.70
2023-03-16T01:30:25.404Z,10.61
2023-03-16T01:30:47.857Z,10.61
2023-03-16T01:31:11.673Z,10.58
2023-03-16T01:31:33.418Z,10.57
2023-03-16T01:31:56.381Z,10.59
2023-03-16T01:32:19.317Z,10.54
2023-03-16T01:32:41.744Z,10.33
2023-03-16T01:33:03.860Z,10.35
2023-03-16T01:33:27.345Z,10.41
2023-03-16T01:33:52.736Z,10.43
2023-03-16T01:34:18.789Z,10.39
2023-03-16T01:34:40.576Z,10.45
2023-03-16T01:35:02.859Z,10.48
2023-03-16T01:35:25.505Z,10.49
2023-03-16T01:35:52.417Z,10.53
2023-03-16T01:36:17.228Z,10.57
2023-03-16T01:36:48.879Z,10.49
2023-03-16T01:37:19.011Z,10.48
2023-03-16T01:37:53.778Z,10.59
2023-03-16T01:38:19.566Z,10.63
2023-03-16T01:38:41.763Z,10.63
2023-03-16T01:39:05.041Z,10.58
2023-03-16T01:39:30.946Z,10.49
2023-03-16T01:39:52.694Z,10.50
2023-03-16T01:40:14.554Z,10.57
2023-03-16T01:40:38.182Z,10.60
2023-03-16T01:41:01.042Z,10.51
2023-03-16T01:41:22.902Z,10.53
2023-03-16T01:41:45.801Z,10.51
2023-03-16T01:42:08.459Z,10.35
2023-03-16T01:42:30.065Z,10.39
2023-03-16T01:43:01.262Z,10.44
2023-03-16T01:43:26.759Z,10.43
2023-03-16T01:43:51.842Z,10.52
2023-03-16T01:44:14.700Z,10.54
2023-03-16T01:44:56.039Z,10.62
2023-03-16T01:46:09.998Z,10.70
2023-03-16T01:46:35.335Z,10.69
2023-03-16T01:46:57.426Z,10.60
2023-03-16T01:47:20.078Z,10.52
2023-03-16T01:47:42.547Z,10.53
2023-03-16T01:48:08.353Z,10.47
2023-03-16T01:48:37.159Z,10.57
2023-03-16T01:49:09.053Z,10.54
2023-03-16T01:49:34.255Z,10.55
2023-03-16T01:49:57.570Z,10.55
2023-03-16T01:50:22.661Z,10.54
2023-03-16T01:50:45.697Z,10.53
2023-03-16T01:51:10.476Z,10.56
2023-03-16T01:51:36.614Z,10.56
2023-03-16T01:52:03.504Z,10.50
2023-03-16T01:52:33.283Z,10.57
2023-03-16T01:52:55.115Z,10.52
2023-03-16T01:53:18.291Z,10.49
2023-03-16T01:53:44.540Z,10.37
2023-03-16T01:54:11.145Z,10.37
2023-03-16T01:54:36.329Z,10.35
2023-03-16T01:55:03.953Z,10.31
2023-03-16T01:55:27.477Z,10.27
2023-03-16T01:55:51.152Z,9.97
2023-03-16T01:56:19.711Z,9.93
2023-03-16T01:56:45.722Z,9.94
2023-03-16T01:57:11.698Z,10.03
2023-03-16T01:57:39.152Z,10.08
2023-03-16T01:58:01.916Z,10.05
2023-03-16T01:58:25.362Z,10.14
2023-03-16T01:58:47.420Z,10.21
2023-03-16T01:59:15.049Z,10.26
2023-03-16T01:59:41.395Z,10.34
2023-03-16T02:00:09.913Z,10.32
2023-03-16T02:00:41.860Z,10.36
2023-03-16T02:01:13.907Z,10.36
2023-03-16T02:01:36.413Z,10.40
2023-03-16T02:02:00.411Z,10.42
2023-03-16T02:02:28.376Z,10.44
2023-03-16T02:02:57.916Z,10.39
2023-03-16T02:03:30.025Z,10.39
2023-03-16T02:04:08.024Z,10.42
2023-03-16T02:04:44.443Z,10.43
2023-03-16T02:05:13.304Z,10.42
2023-03-16T02:05:42.326Z,10.42
2023-03-16T02:06:09.337Z,10.42
2023-03-16T02:06:32.858Z,10.36
2023-03-16T02:06:56.546Z,10.27
2023-03-16T02:07:20.944Z,10.35
2023-03-16T02:07:47.878Z,10.38
2023-03-16T02:08:12.456Z,10.38
2023-03-16T02:08:37.464Z,10.42
2023-03-16T02:09:00.453Z,10.36
2023-03-16T02:09:23.739Z,10.37
2023-03-16T02:09:49.357Z,10.39
2023-03-16T02:10:14.284Z,10.38
2023-03-16T02:10:38.048Z,10.39
2023-03-16T02:11:00.771Z,10.35
2023-03-16T02:11:36.469Z,10.43
2023-03-16T02:12:08.171Z,10.48
2023-03-16T02:12:36.231Z,10.51
2023-03-16T02:12:58.709Z,10.50
2023-03-16T02:13:21.680Z,10.54
2023-03-16T02:13:43.946Z,10.47
2023-03-16T02:14:09.561Z,10.47
2023-03-16T02:14:32.254Z,10.46
2023-03-16T02:14:53.964Z,10.48
2023-03-16T02:15:15.908Z,10.46
2023-03-16T02:15:38.156Z,10.49
2023-03-16T02:16:00.056Z,10.52
2023-03-16T02:16:22.897Z,10.51
2023-03-16T02:16:45.357Z,10.46
2023-03-16T02:17:07.680Z,10.47
2023-03-16T02:17:32.994Z,10.45
2023-03-16T02:18:00.626Z,10.38
2023-03-16T02:18:23.016Z,10.25
2023-03-16T02:18:46.060Z,10.29
2023-03-16T02:19:16.915Z,10.28
2023-03-16T02:19:47.533Z,10.26
2023-03-16T02:20:23.125Z,10.24
2023-03-16T02:20:51.557Z,10.20
2023-03-16T02:21:19.341Z,10.29
2023-03-16T02:21:50.014Z,10.17
2023-03-16T02:22:13.917Z,10.25
2023-03-16T02:22:37.784Z,10.16
2023-03-16T02:23:00.203Z,10.16
2023-03-16T02:23:24.022Z,10.23
2023-03-16T02:23:50.699Z,10.25
2023-03-16T02:24:12.509Z,10.28
2023-03-16T02:24:35.466Z,10.27
2023-03-16T02:24:57.230Z,10.23
2023-03-16T02:25:20.235Z,10.28
2023-03-16T02:25:51.678Z,10.37
2023-03-16T02:26:22.896Z,10.41
2023-03-16T02:26:48.519Z,10.39
2023-03-16T02:27:30.019Z,10.44
2023-03-16T02:28:03.197Z,10.46
2023-03-16T02:28:34.153Z,10.49
2023-03-16T02:29:11.529Z,10.52
2023-03-16T02:29:56.746Z,10.52
2023-03-16T02:30:22.965Z,10.55
2023-03-16T02:30:52.733Z,10.56
2023-03-16T02:31:15.594Z,10.56
2023-03-16T02:31:37.583Z,10.53
2023-03-16T02:32:02.846Z,10.58
2023-03-16T02:32:29.081Z,10.53
2023-03-16T02:32:53.269Z,10.55
2023-03-16T02:33:18.759Z,10.58
2023-03-16T02:33:42.558Z,10.58
2023-03-16T02:34:04.784Z,10.52
2023-03-16T02:34:27.245Z,10.61
2023-03-16T02:34:49.228Z,10.60
2023-03-16T02:35:12.851Z,10.61
2023-03-16T02:35:35.712Z,10.59
2023-03-16T02:35:58.325Z,10.55
2023-03-16T02:36:20.882Z,10.54
2023-03-16T02:36:47.975Z,10.45
2023-03-16T02:37:12.958Z,10.51
2023-03-16T02:37:35.729Z,10.51
2023-03-16T02:37:57.871Z,10.43
2023-03-16T02:38:24.561Z,10.41
2023-03-16T02:38:48.280Z,10.41
2023-03-16T02:39:12.363Z,10.43
2023-03-16T02:39:44.015Z,10.44
2023-03-16T02:40:22.502Z,10.53
2023-03-16T02:40:55.682Z,10.52
2023-03-16T02:41:19.818Z,10.44
2023-03-16T02:41:48.757Z,10.37
2023-03-16T02:42:15.350Z,10.38
2023-03-16T02:42:37.058Z,10.43
2023-03-16T02:43:02.991Z,10.45
2023-03-16T02:43:30.178Z,10.46
2023-03-16T02:44:04.638Z,10.50
2023-03-16T02:44:33.948Z,10.50
2023-03-16T02:45:01.340Z,10.50
2023-03-16T02:45:33.480Z,10.43
2023-03-16T02:45:58.569Z,10.37
2023-03-16T02:46:27.856Z,10.29
2023-03-16T02:46:52.193Z,10.35
2023-03-16T02:47:22.036Z,10.38
2023-03-16T02:47:45.208Z,10.32
2023-03-16T02:48:14.565Z,10.46
2023-03-16T02:48:44.139Z,10.50
2023-03-16T02:49:11.736Z,10.46
2023-03-16T02:49:38.488Z,10.57
2023-03-16T02:50:00.615Z,10.56
2023-03-16T02:50:22.212Z,10.57
2023-03-16T02:50:47.119Z,10.58
2023-03-16T02:51:10.261Z,10.45
2023-03-16T02:51:33.191Z,10.39
2023-03-16T02:51:54.935Z,10.56
2023-03-16T02:52:17.279Z,10.45
2023-03-16T02:52:39.346Z,10.53
2023-03-16T02:53:01.951Z,10.52
2023-03-16T02:53:24.232Z,10.56
2023-03-16T02:53:45.888Z,10.53
2023-03-16T02:54:08.066Z,10.57
2023-03-16T02:54:31.046Z,10.52
2023-03-16T02:54:53.081Z,10.44
2023-03-16T02:55:15.320Z,10.47
2023-03-16T02:55:36.985Z,10.44
2023-03-16T02:55:58.974Z,10.48
2023-03-16T02:56:23.364Z,10.47
2023-03-16T02:56:45.703Z,10.51
2023-03-16T02:57:07.627Z,10.50
2023-03-16T02:57:30.037Z,10.43
2023-03-16T02:57:56.764Z,10.50
2023-03-16T02:58:19.252Z,10.47
2023-03-16T02:58:41.810Z,10.45
2023-03-16T02:59:08.855Z,10.42
2023-03-16T02:59:32.151Z,10.46
2023-03-16T02:59:53.890Z,10.48
2023-03-16T03:00:19.080Z,10.51
2023-03-16T03:00:45.532Z,10.52
2023-03-16T03:01:12.047Z,10.56
2023-03-16T03:01:34.952Z,10.60
2023-03-16T03:01:57.535Z,10.59
2023-03-16T03:02:19.510Z,10.62
2023-03-16T03:02:42.130Z,10.62
2023-03-16T03:03:05.606Z,10.55
2023-03-16T03:03:28.283Z,10.54
2023-03-16T03:03:50.549Z,10.66
2023-03-16T03:04:13.788Z,10.72
2023-03-16T03:04:36.763Z,10.65
2023-03-16T03:05:02.029Z,10.56
2023-03-16T03:05:24.297Z,10.57
2023-03-16T03:05:46.043Z,10.58
2023-03-16T03:06:08.793Z,10.50
2023-03-16T03:06:32.436Z,10.41
2023-03-16T03:06:55.763Z,10.42
2023-03-16T03:07:18.009Z,10.31
2023-03-16T03:07:53.216Z,10.33
2023-03-16T03:08:15.621Z,10.24
2023-03-16T03:08:38.523Z,10.34
2023-03-16T03:09:00.546Z,10.19
2023-03-16T03:09:22.211Z,10.18
2023-03-16T03:09:48.628Z,10.07
2023-03-16T03:10:11.584Z,10.04
2023-03-16T03:10:33.473Z,10.02
2023-03-16T03:10:55.227Z,10.14
2023-03-16T03:11:18.535Z,10.15
2023-03-16T03:11:42.330Z,10.21
2023-03-16T03:12:06.421Z,10.21
2023-03-16T03:12:29.295Z,10.20
2023-03-16T03:12:52.056Z,10.15
2023-03-16T03:13:13.747Z,10.20
2023-03-16T03:13:38.161Z,10.12
2023-03-16T03:14:05.261Z,9.99
2023-03-16T03:14:28.456Z,10.00
2023-03-16T03:14:50.092Z,9.98
2023-03-16T03:15:16.258Z,9.96
2023-03-16T03:15:52.773Z,9.85
2023-03-16T03:16:17.431Z,9.87
2023-03-16T03:16:40.469Z,9.97
2023-03-16T03:17:03.217Z,10.04
2023-03-16T03:17:30.389Z,10.11
2023-03-16T03:17:52.707Z,10.14
2023-03-16T03:18:15.701Z,10.12
2023-03-16T03:18:37.336Z,10.14
2023-03-16T03:18:59.454Z,10.10
2023-03-16T03:19:25.412Z,10.09
2023-03-16T03:19:48.029Z,10.07
2023-03-16T03:20:17.299Z,10.11
2023-03-16T03:20:39.059Z,10.20
2023-03-16T03:21:01.546Z,10.22
2023-03-16T03:21:24.884Z,10.17
2023-03-16T03:21:46.572Z,10.23
2023-03-16T03:22:09.461Z,10.21
2023-03-16T03:22:33.694Z,10.06
2023-03-16T03:22:55.280Z,10.08
2023-03-16T03:23:19.550Z,10.07
2023-03-16T03:23:42.008Z,10.12
2023-03-16T03:24:03.881Z,10.13
2023-03-16T03:24:27.956Z,10.14
2023-03-16T03:24:51.545Z,10.09
2023-03-16T03:25:14.958Z,10.09
2023-03-16T03:25:37.841Z,10.18
2023-03-16T03:26:01.072Z,10.16
2023-03-16T03:26:24.593Z,10.22
2023-03-16T03:26:46.895Z,10.17
2023-03-16T03:27:14.769Z,10.21
2023-03-16T03:27:38.286Z,10.04
2023-03-16T03:28:05.907Z,10.19
2023-03-16T03:28:27.724Z,10.19
2023-03-16T03:28:49.692Z,10.20
2023-03-16T03:29:11.624Z,10.14
2023-03-16T03:29:35.341Z,10.14
2023-03-16T03:29:58.236Z,10.07
2023-03-16T03:30:25.964Z,9.97
2023-03-16T03:30:47.822Z,9.96
2023-03-16T03:31:25.650Z,10.02
2023-03-16T03:31:47.558Z,10.00
2023-03-16T03:32:09.523Z,10.01
2023-03-16T03:32:31.253Z,10.07
2023-03-16T03:32:53.473Z,9.99
2023-03-16T03:33:17.168Z,10.07
2023-03-16T03:33:39.109Z,10.07
2023-03-16T03:34:06.385Z,10.00
2023-03-16T03:34:30.408Z,10.03
2023-03-16T03:34:54.033Z,9.89
2023-03-16T03:35:16.502Z,9.92
2023-03-16T03:35:38.279Z,10.01
2023-03-16T03:36:02.050Z,9.62
2023-03-16T03:36:29.774Z,9.80
2023-03-16T03:36:53.580Z,9.77
2023-03-16T03:37:15.175Z,9.86
2023-03-16T03:37:37.480Z,9.85
2023-03-16T03:38:00.410Z,9.94
2023-03-16T03:38:24.743Z,10.00
2023-03-16T03:38:46.372Z,10.03
2023-03-16T03:39:08.248Z,10.05
2023-03-16T03:39:31.846Z,10.10
2023-03-16T03:39:53.662Z,10.04
2023-03-16T03:40:17.322Z,10.06
2023-03-16T03:40:41.938Z,9.98
2023-03-16T03:41:07.323Z,9.91
2023-03-16T03:41:31.422Z,10.00
2023-03-16T03:41:56.048Z,10.04
2023-03-16T03:42:18.414Z,9.96
2023-03-16T03:42:43.855Z,10.08
2023-03-16T03:43:06.444Z,10.04
2023-03-16T03:43:32.344Z,10.02
2023-03-16T03:43:54.027Z,9.98
2023-03-16T03:44:16.693Z,10.02
2023-03-16T03:44:38.310Z,10.09
2023-03-16T03:44:59.924Z,10.16
2023-03-16T03:45:21.557Z,10.09
2023-03-16T03:45:44.320Z,10.11
2023-03-16T03:46:06.109Z,10.11
2023-03-16T03:46:30.903Z,9.97
2023-03-16T03:46:52.857Z,9.92
2023-03-16T03:47:16.151Z,9.91
2023-03-16T03:47:38.088Z,9.96
2023-03-16T03:48:00.408Z,9.96
2023-03-16T03:48:23.115Z,9.95
2023-03-16T03:48:44.735Z,9.96
2023-03-16T03:49:06.397Z,9.96
2023-03-16T03:49:29.979Z,9.98
2023-03-16T03:49:51.678Z,10.01
2023-03-16T03:50:14.790Z,9.90
2023-03-16T03:51:06.710Z,10.07
2023-03-16T03:51:40.985Z,10.07
2023-03-16T03:52:08.197Z,10.00
2023-03-16T03:52:29.899Z,10.01
2023-03-16T03:52:51.590Z,10.05
2023-03-16T03:53:13.243Z,10.08
2023-03-16T03:53:56.382Z,10.15
2023-03-16T03:54:31.144Z,10.15
2023-03-16T03:54:55.352Z,10.16
2023-03-16T03:55:18.590Z,10.20
2023-03-16T03:55:40.205Z,10.21
2023-03-16T03:56:01.782Z,10.28
2023-03-16T03:56:23.604Z,10.30
2023-03-16T03:56:45.228Z,10.24
2023-03-16T03:57:11.301Z,10.26
2023-03-16T03:57:33.370Z,10.16
2023-03-16T03:57:55.157Z,10.29
2023-03-16T03:58:17.013Z,10.30
2023-03-16T03:58:39.742Z,10.36
2023-03-16T03:59:01.603Z,10.35
2023-03-16T03:59:45.824Z,10.37
2023-03-16T04:00:27.364Z,10.36
2023-03-16T04:00:49.231Z,10.32
2023-03-16T04:01:10.919Z,10.30
2023-03-16T04:01:33.910Z,10.29
2023-03-16T04:01:56.680Z,10.29
2023-03-16T04:02:24.451Z,10.32
2023-03-16T04:02:49.414Z,10.32
2023-03-16T04:03:21.775Z,10.38
2023-03-16T04:03:45.755Z,10.36
2023-03-16T04:04:09.833Z,10.42
2023-03-16T04:04:31.505Z,10.41
2023-03-16T04:04:53.077Z,10.47
2023-03-16T04:05:15.878Z,10.48
2023-03-16T04:05:38.058Z,10.43
2023-03-16T04:06:00.029Z,10.48
2023-03-16T04:06:22.748Z,10.48
2023-03-16T04:06:45.699Z,10.46
2023-03-16T04:07:07.764Z,10.38
2023-03-16T04:07:29.456Z,10.43
2023-03-16T04:07:57.620Z,10.45
2023-03-16T04:08:19.574Z,10.46
2023-03-16T04:08:43.155Z,10.46
2023-03-16T04:09:10.953Z,10.48
2023-03-16T04:09:34.563Z,10.44
2023-03-16T04:09:57.115Z,10.42
2023-03-16T04:10:25.223Z,10.46
2023-03-16T04:10:51.386Z,10.50
2023-03-16T04:11:15.369Z,10.48
2023-03-16T04:11:39.361Z,10.48
2023-03-16T04:12:01.819Z,10.51
2023-03-16T04:12:23.838Z,10.51
2023-03-16T04:12:46.862Z,10.51
2023-03-16T04:13:09.317Z,10.43
2023-03-16T04:13:31.081Z,10.48
2023-03-16T04:13:53.410Z,10.51
2023-03-16T04:14:15.948Z,10.50
2023-03-16T04:14:40.003Z,10.53
2023-03-16T04:15:04.788Z,10.51
2023-03-16T04:15:33.975Z,10.57
2023-03-16T04:16:05.794Z,10.57
2023-03-16T04:16:35.978Z,10.59
2023-03-16T04:16:57.985Z,10.55
2023-03-16T04:17:20.564Z,10.60
2023-03-16T04:17:43.340Z,10.47
2023-03-16T04:18:06.352Z,10.52
2023-03-16T04:18:29.057Z,10.49
2023-03-16T04:18:51.750Z,10.51
2023-03-16T04:19:13.416Z,10.43
2023-03-16T04:19:35.757Z,10.39
2023-03-16T04:19:58.682Z,10.38
2023-03-16T04:20:20.723Z,10.37
2023-03-16T04:20:44.351Z,10.38
2023-03-16T04:21:14.701Z,10.31
2023-03-16T04:21:36.403Z,10.33
2023-03-16T04:21:58.076Z,10.35
2023-03-16T04:22:23.083Z,10.39
2023-03-16T04:22:46.425Z,10.34
2023-03-16T04:23:09.020Z,10.37
2023-03-16T04:23:33.898Z,10.43
2023-03-16T04:23:56.744Z,10.44
2023-03-16T04:24:25.950Z,10.43
2023-03-16T04:24:47.625Z,10.46
2023-03-16T04:25:11.407Z,10.50
2023-03-16T04:25:38.542Z,10.46
2023-03-16T04:26:01.587Z,10.47
2023-03-16T04:26:25.596Z,10.37
2023-03-16T04:26:48.607Z,10.36
2023-03-16T04:27:12.039Z,10.33
2023-03-16T04:27:36.497Z,10.33
2023-03-16T04:27:59.293Z,10.39
2023-03-16T04:28:26.298Z,10.38
2023-03-16T04:28:49.193Z,10.41
2023-03-16T04:29:14.578Z,10.41
2023-03-16T04:29:36.435Z,10.32
2023-03-16T04:29:59.626Z,10.36
2023-03-16T04:30:23.400Z,10.45
2023-03-16T04:30:49.573Z,10.44
2023-03-16T04:31:20.203Z,10.47
2023-03-16T04:31:44.634Z,10.37
2023-03-16T04:32:08.663Z,10.29
2023-03-16T04:32:31.639Z,10.25
2023-03-16T04:32:53.558Z,10.21
2023-03-16T04:33:16.592Z,10.20
2023-03-16T04:33:42.331Z,10.13
2023-03-16T04:34:04.001Z,10.14
2023-03-16T04:34:26.810Z,10.02
2023-03-16T04:34:55.749Z,10.13
2023-03-16T04:35:22.561Z,10.18
2023-03-16T04:35:48.805Z,10.18
2023-03-16T04:36:12.024Z,10.19
2023-03-16T04:36:34.220Z,10.21
2023-03-16T04:36:58.970Z,10.17
2023-03-16T04:37:20.677Z,10.16
2023-03-16T04:37:42.510Z,10.02
2023-03-16T04:38:05.278Z,10.04
2023-03-16T04:38:36.296Z,10.14
2023-03-16T04:38:57.926Z,10.17
2023-03-16T04:39:20.118Z,10.12
2023-03-16T04:39:43.196Z,10.06
2023-03-16T04:40:11.707Z,10.05
2023-03-16T04:40:35.900Z,10.10
2023-03-16T04:41:06.222Z,10.10
2023-03-16T04:41:32.305Z,10.12
2023-03-16T04:42:06.224Z,10.16
2023-03-16T04:42:27.967Z,10.16
2023-03-16T04:42:49.632Z,10.15
2023-03-16T04:43:14.582Z,10.10
2023-03-16T04:43:38.489Z,10.02
2023-03-16T04:44:06.551Z,10.00
2023-03-16T04:44:29.623Z,10.05
2023-03-16T04:44:51.902Z,10.10
2023-03-16T04:45:20.072Z,10.11
2023-03-16T04:45:44.245Z,10.02
2023-03-16T04:46:06.434Z,10.03
2023-03-16T04:46:30.137Z,10.09
2023-03-16T04:46:56.475Z,10.05
2023-03-16T04:47:20.438Z,9.94
2023-03-16T04:47:42.072Z,9.93
2023-03-16T04:48:05.043Z,9.88
2023-03-16T04:48:27.148Z,9.97
2023-03-16T04:48:48.755Z,9.91
2023-03-16T04:49:10.616Z,9.99
2023-03-16T04:49:34.434Z,10.04
2023-03-16T04:49:56.216Z,10.07
2023-03-16T04:50:18.678Z,10.00
2023-03-16T04:50:49.386Z,10.01
2023-03-16T04:51:11.624Z,10.02
2023-03-16T04:51:40.502Z,10.07
2023-03-16T04:52:05.273Z,10.10
2023-03-16T04:52:28.510Z,10.11
2023-03-16T04:52:50.195Z,10.05
2023-03-16T04:53:11.802Z,10.14
2023-03-16T04:53:33.757Z,10.14
2023-03-16T04:54:03.134Z,10.06
2023-03-16T04:54:29.164Z,10.12
2023-03-16T04:54:51.679Z,10.14
2023-03-16T04:55:15.107Z,10.11
2023-03-16T04:55:37.885Z,10.04
2023-03-16T04:56:00.203Z,10.20
2023-03-16T04:56:22.001Z,10.24
2023-03-16T04:56:49.578Z,10.24
2023-03-16T04:57:35.245Z,10.21
2023-03-16T04:57:57.282Z,10.23
2023-03-16T04:58:19.545Z,10.21
2023-03-16T04:58:42.820Z,10.22
2023-03-16T04:59:05.623Z,10.21
2023-03-16T04:59:37.374Z,10.22
2023-03-16T05:00:14.919Z,10.18
2023-03-16T05:00:45.520Z,10.11
2023-03-16T05:01:17.092Z,10.09
2023-03-16T05:01:39.363Z,10.08
2023-03-16T05:02:04.014Z,10.13
2023-03-16T05:02:26.663Z,10.15
2023-03-16T05:02:51.783Z,10.17
2023-03-16T05:03:14.132Z,10.18
2023-03-16T05:03:38.649Z,10.15
2023-03-16T05:04:00.347Z,10.13
2023-03-16T05:04:24.928Z,10.17
2023-03-16T05:04:47.088Z,10.16
2023-03-16T05:05:10.196Z,9.97
2023-03-16T05:05:39.427Z,10.04
2023-03-16T05:06:01.413Z,10.08
2023-03-16T05:06:25.759Z,10.09
2023-03-16T05:06:48.915Z,10.14
2023-03-16T05:07:13.366Z,10.09
2023-03-16T05:07:39.274Z,10.05
2023-03-16T05:08:01.499Z,10.04
2023-03-16T05:08:26.127Z,10.06
2023-03-16T05:08:49.261Z,10.10
2023-03-16T05:09:11.789Z,10.09
2023-03-16T05:09:34.784Z,10.13
2023-03-16T05:09:57.326Z,10.18
2023-03-16T05:10:19.292Z,10.00
2023-03-16T05:10:42.464Z,10.08
2023-03-16T05:11:04.174Z,10.09
2023-03-16T05:11:31.290Z,10.11
2023-03-16T05:11:56.208Z,10.15
2023-03-16T05:12:18.500Z,10.19
2023-03-16T05:12:43.623Z,10.09
2023-03-16T05:13:06.403Z,10.08
2023-03-16T05:13:28.734Z,10.05
2023-03-16T05:13:53.547Z,9.98
2023-03-16T05:14:17.513Z,10.00
2023-03-16T05:15:04.733Z,9.97
2023-03-16T05:15:37.176Z,10.01
2023-03-16T05:16:13.706Z,10.06
2023-03-16T05:16:36.653Z,10.10